JZA838 CYYZ-KRDU
Flight info
| Callsign | JZA838 |
|---|---|
| Flight time | 1h 25m |
| Altitude | 36000 |
| Route | BETES3 AIRRA Q103 RICCS DCT FRIKY ALDAN4 |
| Aircraft | CRJ9/M-SDFGIRWY/S |
Departure
| Time | 2026-05-06 23:31 |
|---|---|
| Airport | Toronto Pearson International Airport (CYYZ) |
Arrival
| Time | 2026-05-07 00:56 |
|---|---|
| Airport | Raleigh-Durham International Airport (KRDU) |
| Time | Latitude | Longitude | Altitude | Speed | Heading |
|---|---|---|---|---|---|
| 2026-05-06 22:44 | 43.67910 | -79.60842 | 564 ft | 0 kts | 47° |
| 2026-05-06 23:08 | 43.67900 | -79.60857 | 567 ft | 3 kts | 47° |
| 2026-05-06 23:08 | 43.67886 | -79.60878 | 560 ft | 3 kts | 47° |
| 2026-05-06 23:09 | 43.67875 | -79.60893 | 561 ft | 1 kts | 47° |
| 2026-05-06 23:09 | 43.67875 | -79.60894 | 561 ft | 0 kts | 47° |
| 2026-05-06 23:18 | 43.67876 | -79.60893 | 561 ft | 0 kts | 37° |
| 2026-05-06 23:19 | 43.67879 | -79.60893 | 562 ft | 1 kts | 338° |
| 2026-05-06 23:19 | 43.67881 | -79.60916 | 553 ft | 7 kts | 251° |
| 2026-05-06 23:19 | 43.67849 | -79.60953 | 562 ft | 6 kts | 192° |
| 2026-05-06 23:19 | 43.67812 | -79.60933 | 566 ft | 8 kts | 137° |
| 2026-05-06 23:20 | 43.67757 | -79.60862 | 560 ft | 14 kts | 137° |
| 2026-05-06 23:20 | 43.67697 | -79.60786 | 564 ft | 9 kts | 137° |
| 2026-05-06 23:20 | 43.67675 | -79.60685 | 560 ft | 13 kts | 97° |
| 2026-05-06 23:20 | 43.67595 | -79.60657 | 563 ft | 17 kts | 218° |
| 2026-05-06 23:21 | 43.67497 | -79.60794 | 564 ft | 23 kts | 227° |
| 2026-05-06 23:21 | 43.67383 | -79.60988 | 558 ft | 29 kts | 233° |
| 2026-05-06 23:21 | 43.67274 | -79.61203 | 561 ft | 22 kts | 256° |
| 2026-05-06 23:21 | 43.67407 | -79.61431 | 562 ft | 47 kts | 317° |
| 2026-05-06 23:22 | 43.67628 | -79.61716 | 561 ft | 41 kts | 317° |
| 2026-05-06 23:22 | 43.67821 | -79.61967 | 561 ft | 36 kts | 316° |
| 2026-05-06 23:22 | 43.68012 | -79.62153 | 560 ft | 32 kts | 317° |
| 2026-05-06 23:22 | 43.68169 | -79.62356 | 566 ft | 34 kts | 318° |
| 2026-05-06 23:23 | 43.68316 | -79.62679 | 566 ft | 46 kts | 316° |
| 2026-05-06 23:23 | 43.68568 | -79.63007 | 564 ft | 53 kts | 316° |
| 2026-05-06 23:23 | 43.68812 | -79.63326 | 563 ft | 45 kts | 317° |
| 2026-05-06 23:23 | 43.69012 | -79.63602 | 568 ft | 28 kts | 292° |
| 2026-05-06 23:24 | 43.68887 | -79.63863 | 572 ft | 49 kts | 226° |
| 2026-05-06 23:24 | 43.68647 | -79.64216 | 565 ft | 50 kts | 226° |
| 2026-05-06 23:24 | 43.68417 | -79.64548 | 564 ft | 46 kts | 227° |
| 2026-05-06 23:24 | 43.68294 | -79.64672 | 571 ft | 14 kts | 176° |
| 2026-05-06 23:25 | 43.68206 | -79.64677 | 574 ft | 12 kts | 223° |
| 2026-05-06 23:25 | 43.68206 | -79.64728 | 571 ft | 0 kts | 309° |
| 2026-05-06 23:29 | 43.68209 | -79.64734 | 570 ft | 8 kts | 308° |
| 2026-05-06 23:29 | 43.68188 | -79.64876 | 567 ft | 26 kts | 227° |
| 2026-05-06 23:29 | 43.68103 | -79.65054 | 571 ft | 16 kts | 292° |
| 2026-05-06 23:30 | 43.68277 | -79.65072 | 563 ft | 36 kts | 15° |
| 2026-05-06 23:30 | 43.68579 | -79.64721 | 564 ft | 91 kts | 46° |
| 2026-05-06 23:30 | 43.69167 | -79.63872 | 567 ft | 150 kts | 46° |
| 2026-05-06 23:30 | 43.69906 | -79.62760 | 1052 ft | 162 kts | 47° |
| 2026-05-06 23:31 | 43.70649 | -79.61600 | 1840 ft | 161 kts | 38° |
| 2026-05-06 23:31 | 43.71478 | -79.60515 | 2481 ft | 168 kts | 38° |
| 2026-05-06 23:31 | 43.72364 | -79.59412 | 3144 ft | 174 kts | 37° |
| 2026-05-06 23:31 | 43.73285 | -79.58262 | 3700 ft | 187 kts | 39° |
| 2026-05-06 23:32 | 43.73925 | -79.56611 | 4191 ft | 207 kts | 79° |
| 2026-05-06 23:32 | 43.74135 | -79.54587 | 4707 ft | 223 kts | 79° |
| 2026-05-06 23:32 | 43.74371 | -79.52405 | 5204 ft | 235 kts | 80° |
| 2026-05-06 23:32 | 43.74623 | -79.50117 | 5741 ft | 246 kts | 80° |
| 2026-05-06 23:33 | 43.74886 | -79.47735 | 6289 ft | 254 kts | 81° |
| 2026-05-06 23:33 | 43.74862 | -79.45343 | 6551 ft | 276 kts | 107° |
| 2026-05-06 23:33 | 43.73828 | -79.43050 | 7030 ft | 284 kts | 143° |
| 2026-05-06 23:33 | 43.72108 | -79.41799 | 7890 ft | 280 kts | 166° |
| 2026-05-06 23:34 | 43.70270 | -79.40809 | 8756 ft | 287 kts | 163° |
| 2026-05-06 23:34 | 43.68440 | -79.39621 | 9628 ft | 295 kts | 159° |
| 2026-05-06 23:34 | 43.66527 | -79.38802 | 10412 ft | 282 kts | 187° |
| 2026-05-06 23:34 | 43.64598 | -79.39038 | 11248 ft | 277 kts | 197° |
| 2026-05-06 23:35 | 43.62712 | -79.39562 | 12082 ft | 275 kts | 204° |
| 2026-05-06 23:35 | 43.60956 | -79.40540 | 12912 ft | 272 kts | 213° |
| 2026-05-06 23:35 | 43.59283 | -79.41747 | 13744 ft | 272 kts | 215° |
| 2026-05-06 23:35 | 43.57619 | -79.43017 | 14501 ft | 273 kts | 216° |
| 2026-05-06 23:36 | 43.55956 | -79.44286 | 15236 ft | 275 kts | 215° |
| 2026-05-06 23:36 | 43.54319 | -79.45650 | 15910 ft | 274 kts | 220° |
| 2026-05-06 23:36 | 43.52795 | -79.47221 | 16590 ft | 274 kts | 223° |
| 2026-05-06 23:36 | 43.51327 | -79.48844 | 17253 ft | 275 kts | 223° |
| 2026-05-06 23:37 | 43.49840 | -79.50514 | 17922 ft | 276 kts | 223° |
| 2026-05-06 23:37 | 43.48335 | -79.52176 | 18521 ft | 278 kts | 223° |
| 2026-05-06 23:37 | 43.46806 | -79.53827 | 19040 ft | 281 kts | 222° |
| 2026-05-06 23:37 | 43.45250 | -79.55488 | 19560 ft | 284 kts | 222° |
| 2026-05-06 23:38 | 43.43685 | -79.57159 | 20064 ft | 286 kts | 223° |
| 2026-05-06 23:38 | 43.42103 | -79.58848 | 20571 ft | 289 kts | 223° |
| 2026-05-06 23:38 | 43.40509 | -79.60548 | 21062 ft | 291 kts | 223° |
| 2026-05-06 23:38 | 43.38902 | -79.62262 | 21540 ft | 294 kts | 223° |
| 2026-05-06 23:39 | 43.37279 | -79.63991 | 22004 ft | 296 kts | 223° |
| 2026-05-06 23:39 | 43.35643 | -79.65732 | 22450 ft | 299 kts | 223° |
| 2026-05-06 23:39 | 43.33992 | -79.67489 | 22887 ft | 302 kts | 223° |
| 2026-05-06 23:39 | 43.32323 | -79.69262 | 23306 ft | 305 kts | 223° |
| 2026-05-06 23:40 | 43.30633 | -79.71058 | 23635 ft | 309 kts | 223° |
| 2026-05-06 23:40 | 43.28920 | -79.72876 | 23928 ft | 314 kts | 223° |
| 2026-05-06 23:40 | 43.27184 | -79.74716 | 24257 ft | 316 kts | 223° |
| 2026-05-06 23:40 | 43.25284 | -79.76313 | 24551 ft | 329 kts | 210° |
| 2026-05-06 23:41 | 43.23096 | -79.77351 | 24884 ft | 336 kts | 204° |
| 2026-05-06 23:41 | 43.20810 | -79.78160 | 25210 ft | 342 kts | 202° |
| 2026-05-06 23:41 | 43.18481 | -79.78877 | 25526 ft | 344 kts | 201° |
| 2026-05-06 23:41 | 43.16159 | -79.79575 | 26085 ft | 337 kts | 202° |
| 2026-05-06 23:42 | 43.13894 | -79.80265 | 26621 ft | 333 kts | 204° |
| 2026-05-06 23:42 | 43.11645 | -79.81020 | 26964 ft | 333 kts | 205° |
| 2026-05-06 23:42 | 43.09398 | -79.81781 | 27302 ft | 333 kts | 205° |
| 2026-05-06 23:42 | 43.07139 | -79.82543 | 27616 ft | 335 kts | 206° |
| 2026-05-06 23:43 | 43.04871 | -79.83307 | 27905 ft | 336 kts | 206° |
| 2026-05-06 23:43 | 43.02595 | -79.84072 | 28210 ft | 337 kts | 206° |
| 2026-05-06 23:43 | 43.00320 | -79.84835 | 28537 ft | 337 kts | 206° |
| 2026-05-06 23:43 | 42.98041 | -79.85602 | 28802 ft | 338 kts | 206° |
| 2026-05-06 23:44 | 42.95764 | -79.86337 | 29139 ft | 336 kts | 208° |
| 2026-05-06 23:44 | 42.91109 | -79.87901 | 29121 ft | 353 kts | 207° |
| 2026-05-06 23:45 | 42.86267 | -79.89554 | 29183 ft | 369 kts | 207° |
| 2026-05-06 23:45 | 42.81162 | -79.91197 | 29444 ft | 382 kts | 205° |
| 2026-05-06 23:45 | 42.78543 | -79.91897 | 29715 ft | 385 kts | 204° |
| 2026-05-06 23:46 | 42.75908 | -79.92526 | 30094 ft | 384 kts | 205° |
| 2026-05-06 23:46 | 42.73273 | -79.93132 | 30305 ft | 384 kts | 205° |
| 2026-05-06 23:46 | 42.70643 | -79.93780 | 30496 ft | 384 kts | 206° |
| 2026-05-06 23:46 | 42.68006 | -79.94431 | 30694 ft | 386 kts | 206° |
| 2026-05-06 23:47 | 42.65358 | -79.95097 | 30865 ft | 387 kts | 206° |
| 2026-05-06 23:47 | 42.62712 | -79.95766 | 31074 ft | 388 kts | 206° |
| 2026-05-06 23:47 | 42.60055 | -79.96442 | 31251 ft | 389 kts | 206° |
| 2026-05-06 23:47 | 42.57396 | -79.97116 | 31416 ft | 388 kts | 206° |
| 2026-05-06 23:48 | 42.54746 | -79.97774 | 31736 ft | 386 kts | 207° |
| 2026-05-06 23:48 | 42.52099 | -79.98445 | 31867 ft | 388 kts | 207° |
| 2026-05-06 23:48 | 42.49356 | -79.99142 | 31929 ft | 392 kts | 207° |
| 2026-05-06 23:49 | 42.43940 | -80.00514 | 31973 ft | 396 kts | 207° |
| 2026-05-06 23:49 | 42.38543 | -80.01879 | 31979 ft | 395 kts | 207° |
| 2026-05-06 23:50 | 42.33130 | -80.03245 | 31982 ft | 397 kts | 207° |
| 2026-05-06 23:50 | 42.24876 | -80.05078 | 31985 ft | 411 kts | 201° |
| 2026-05-06 23:51 | 42.19158 | -80.05575 | 31986 ft | 420 kts | 198° |
| 2026-05-06 23:51 | 42.13258 | -80.05574 | 31985 ft | 425 kts | 197° |
| 2026-05-06 23:52 | 42.07335 | -80.05530 | 31990 ft | 425 kts | 197° |
| 2026-05-06 23:52 | 42.01405 | -80.05551 | 31990 ft | 426 kts | 197° |
| 2026-05-06 23:53 | 41.95504 | -80.05591 | 31984 ft | 427 kts | 198° |
| 2026-05-06 23:53 | 41.92540 | -80.05607 | 32352 ft | 422 kts | 198° |
| 2026-05-06 23:53 | 41.89606 | -80.05628 | 32624 ft | 421 kts | 198° |
| 2026-05-06 23:54 | 41.86640 | -80.05649 | 32797 ft | 421 kts | 198° |
| 2026-05-06 23:54 | 41.83753 | -80.05669 | 32990 ft | 421 kts | 198° |
| 2026-05-06 23:54 | 41.80826 | -80.05690 | 33211 ft | 420 kts | 199° |
| 2026-05-06 23:54 | 41.77906 | -80.05711 | 33413 ft | 420 kts | 199° |
| 2026-05-06 23:55 | 41.74947 | -80.05732 | 33560 ft | 420 kts | 199° |
| 2026-05-06 23:55 | 41.72068 | -80.05753 | 33744 ft | 419 kts | 199° |
| 2026-05-06 23:55 | 41.69150 | -80.05773 | 33918 ft | 420 kts | 199° |
| 2026-05-06 23:55 | 41.66238 | -80.05794 | 34081 ft | 419 kts | 199° |
| 2026-05-06 23:56 | 41.63322 | -80.05816 | 34221 ft | 419 kts | 199° |
| 2026-05-06 23:56 | 41.60407 | -80.05839 | 34372 ft | 419 kts | 199° |
| 2026-05-06 23:56 | 41.57489 | -80.05863 | 34517 ft | 419 kts | 199° |
| 2026-05-06 23:56 | 41.54569 | -80.05885 | 34547 ft | 420 kts | 199° |
| 2026-05-06 23:57 | 41.51642 | -80.05912 | 34667 ft | 421 kts | 199° |
| 2026-05-06 23:57 | 41.48710 | -80.05933 | 34824 ft | 421 kts | 199° |
| 2026-05-06 23:57 | 41.45783 | -80.05958 | 34963 ft | 421 kts | 199° |
| 2026-05-06 23:57 | 41.42852 | -80.05981 | 35056 ft | 421 kts | 199° |
| 2026-05-06 23:58 | 41.39925 | -80.06004 | 35211 ft | 421 kts | 199° |
| 2026-05-06 23:58 | 41.36995 | -80.06024 | 35362 ft | 421 kts | 199° |
| 2026-05-06 23:58 | 41.34067 | -80.06046 | 35465 ft | 421 kts | 199° |
| 2026-05-06 23:58 | 41.31134 | -80.06068 | 35559 ft | 422 kts | 199° |
| 2026-05-06 23:59 | 41.28199 | -80.06092 | 35693 ft | 422 kts | 199° |
| 2026-05-06 23:59 | 41.25257 | -80.06115 | 35766 ft | 423 kts | 199° |
| 2026-05-06 23:59 | 41.19338 | -80.06159 | 35882 ft | 427 kts | 198° |
| 2026-05-07 00:00 | 41.13396 | -80.06200 | 35979 ft | 426 kts | 198° |
| 2026-05-07 00:00 | 41.08498 | -80.06221 | 35982 ft | 420 kts | 199° |
| 2026-05-07 00:01 | 41.01696 | -80.06303 | 36009 ft | 417 kts | 199° |
| 2026-05-07 00:01 | 40.95922 | -80.06344 | 36006 ft | 414 kts | 199° |
| 2026-05-07 00:02 | 40.90185 | -80.06366 | 35963 ft | 410 kts | 199° |
| 2026-05-07 00:02 | 40.84501 | -80.06397 | 35984 ft | 406 kts | 200° |
| 2026-05-07 00:03 | 40.78866 | -80.06437 | 36000 ft | 404 kts | 200° |
| 2026-05-07 00:03 | 40.73247 | -80.06475 | 36011 ft | 404 kts | 200° |
| 2026-05-07 00:04 | 40.67617 | -80.06516 | 35986 ft | 406 kts | 200° |
| 2026-05-07 00:04 | 40.62929 | -80.06550 | 36001 ft | 405 kts | 200° |
| 2026-05-07 00:05 | 40.57294 | -80.06586 | 35982 ft | 405 kts | 200° |
| 2026-05-07 00:05 | 40.51674 | -80.06625 | 35988 ft | 403 kts | 200° |
| 2026-05-07 00:06 | 40.46060 | -80.06666 | 35944 ft | 403 kts | 200° |
| 2026-05-07 00:06 | 40.40468 | -80.06694 | 35965 ft | 401 kts | 200° |
| 2026-05-07 00:07 | 40.34886 | -80.06734 | 35971 ft | 401 kts | 200° |
| 2026-05-07 00:07 | 40.29304 | -80.06772 | 35969 ft | 401 kts | 200° |
| 2026-05-07 00:08 | 40.23725 | -80.06811 | 35971 ft | 401 kts | 200° |
| 2026-05-07 00:08 | 40.18147 | -80.06850 | 36012 ft | 401 kts | 200° |
| 2026-05-07 00:09 | 40.12522 | -80.06898 | 36019 ft | 408 kts | 200° |
| 2026-05-07 00:09 | 40.06797 | -80.06946 | 36002 ft | 414 kts | 200° |
| 2026-05-07 00:10 | 40.00994 | -80.06980 | 35958 ft | 419 kts | 200° |
| 2026-05-07 00:10 | 39.95129 | -80.07029 | 35981 ft | 424 kts | 199° |
| 2026-05-07 00:11 | 39.89198 | -80.07069 | 35995 ft | 428 kts | 199° |
| 2026-05-07 00:11 | 39.83214 | -80.07104 | 35983 ft | 429 kts | 199° |
| 2026-05-07 00:12 | 39.77269 | -80.07141 | 35959 ft | 425 kts | 199° |
| 2026-05-07 00:12 | 39.71377 | -80.07193 | 35969 ft | 423 kts | 199° |
| 2026-05-07 00:13 | 39.65518 | -80.07225 | 35993 ft | 420 kts | 199° |
| 2026-05-07 00:13 | 39.59690 | -80.07266 | 35965 ft | 417 kts | 199° |
| 2026-05-07 00:14 | 39.53930 | -80.07291 | 35976 ft | 416 kts | 199° |
| 2026-05-07 00:14 | 39.48171 | -80.07390 | 35985 ft | 413 kts | 200° |
| 2026-05-07 00:15 | 39.42432 | -80.07486 | 35977 ft | 411 kts | 200° |
| 2026-05-07 00:15 | 39.36726 | -80.07611 | 35928 ft | 408 kts | 199° |
| 2026-05-07 00:16 | 39.31044 | -80.07771 | 35968 ft | 410 kts | 199° |
| 2026-05-07 00:16 | 39.25325 | -80.07866 | 35975 ft | 412 kts | 198° |
| 2026-05-07 00:17 | 39.19569 | -80.07933 | 35963 ft | 415 kts | 198° |
| 2026-05-07 00:17 | 39.13783 | -80.08003 | 35944 ft | 416 kts | 198° |
| 2026-05-07 00:18 | 39.07981 | -80.08100 | 35976 ft | 418 kts | 198° |
| 2026-05-07 00:18 | 39.02142 | -80.08188 | 35978 ft | 421 kts | 198° |
| 2026-05-07 00:19 | 38.96266 | -80.08275 | 35980 ft | 423 kts | 198° |
| 2026-05-07 00:19 | 38.90322 | -80.08226 | 35959 ft | 435 kts | 194° |
| 2026-05-07 00:20 | 38.84178 | -80.07587 | 36008 ft | 449 kts | 191° |
| 2026-05-07 00:20 | 38.77921 | -80.06887 | 35989 ft | 453 kts | 192° |
| 2026-05-07 00:21 | 38.71609 | -80.06207 | 36000 ft | 457 kts | 192° |
| 2026-05-07 00:21 | 38.65254 | -80.05532 | 35972 ft | 459 kts | 191° |
| 2026-05-07 00:22 | 38.58866 | -80.04847 | 35964 ft | 462 kts | 191° |
| 2026-05-07 00:22 | 38.52451 | -80.04094 | 35965 ft | 463 kts | 190° |
| 2026-05-07 00:23 | 38.46067 | -80.03412 | 35887 ft | 459 kts | 191° |
| 2026-05-07 00:23 | 38.39706 | -80.02781 | 35934 ft | 458 kts | 191° |
| 2026-05-07 00:24 | 38.33333 | -80.02078 | 35892 ft | 459 kts | 191° |
| 2026-05-07 00:24 | 38.26986 | -80.01346 | 35936 ft | 457 kts | 191° |
| 2026-05-07 00:25 | 38.20620 | -80.00673 | 35888 ft | 461 kts | 191° |
| 2026-05-07 00:25 | 38.14207 | -79.99974 | 35826 ft | 463 kts | 191° |
| 2026-05-07 00:26 | 38.07803 | -79.99390 | 35903 ft | 463 kts | 191° |
| 2026-05-07 00:26 | 38.01335 | -79.98730 | 35927 ft | 469 kts | 191° |
| 2026-05-07 00:27 | 37.94814 | -79.98057 | 35963 ft | 472 kts | 189° |
| 2026-05-07 00:27 | 37.88267 | -79.97252 | 35981 ft | 472 kts | 190° |
| 2026-05-07 00:28 | 37.81729 | -79.96558 | 35997 ft | 472 kts | 190° |
| 2026-05-07 00:28 | 37.75196 | -79.95880 | 35928 ft | 470 kts | 190° |
| 2026-05-07 00:29 | 37.68699 | -79.95196 | 35935 ft | 467 kts | 191° |
| 2026-05-07 00:30 | 37.55778 | -79.93847 | 35914 ft | 464 kts | 191° |
| 2026-05-07 00:30 | 37.49353 | -79.93237 | 35892 ft | 457 kts | 194° |
| 2026-05-07 00:31 | 37.43104 | -79.93429 | 35740 ft | 447 kts | 199° |
| 2026-05-07 00:31 | 37.40019 | -79.93659 | 35336 ft | 443 kts | 199° |
| 2026-05-07 00:31 | 37.36957 | -79.93917 | 34980 ft | 440 kts | 199° |
| 2026-05-07 00:32 | 37.33841 | -79.93886 | 34604 ft | 462 kts | 188° |
| 2026-05-07 00:32 | 37.30627 | -79.92948 | 34231 ft | 488 kts | 174° |
| 2026-05-07 00:32 | 37.27479 | -79.91117 | 33833 ft | 511 kts | 162° |
| 2026-05-07 00:32 | 37.24542 | -79.88461 | 33408 ft | 530 kts | 149° |
| 2026-05-07 00:33 | 37.21953 | -79.85100 | 33016 ft | 543 kts | 138° |
| 2026-05-07 00:33 | 37.19681 | -79.81320 | 32635 ft | 538 kts | 136° |
| 2026-05-07 00:33 | 37.17345 | -79.77783 | 32210 ft | 516 kts | 143° |
| 2026-05-07 00:33 | 37.14773 | -79.74764 | 31808 ft | 507 kts | 150° |
| 2026-05-07 00:34 | 37.12052 | -79.71954 | 31435 ft | 508 kts | 150° |
| 2026-05-07 00:34 | 37.09415 | -79.69208 | 31055 ft | 493 kts | 149° |
| 2026-05-07 00:34 | 37.06849 | -79.66418 | 30670 ft | 485 kts | 148° |
| 2026-05-07 00:34 | 37.04336 | -79.63656 | 30292 ft | 478 kts | 148° |
| 2026-05-07 00:35 | 37.01855 | -79.60929 | 29871 ft | 471 kts | 148° |
| 2026-05-07 00:35 | 36.99409 | -79.58239 | 29418 ft | 465 kts | 147° |
| 2026-05-07 00:35 | 36.97006 | -79.55594 | 28944 ft | 454 kts | 147° |
| 2026-05-07 00:35 | 36.94688 | -79.52976 | 28531 ft | 445 kts | 146° |
| 2026-05-07 00:36 | 36.92424 | -79.50414 | 28119 ft | 434 kts | 148° |
| 2026-05-07 00:36 | 36.90167 | -79.47973 | 27699 ft | 425 kts | 148° |
| 2026-05-07 00:36 | 36.87954 | -79.45571 | 27286 ft | 418 kts | 148° |
| 2026-05-07 00:36 | 36.85780 | -79.43192 | 26880 ft | 412 kts | 148° |
| 2026-05-07 00:37 | 36.83622 | -79.40853 | 26465 ft | 409 kts | 148° |
| 2026-05-07 00:37 | 36.81465 | -79.38545 | 26091 ft | 409 kts | 148° |
| 2026-05-07 00:37 | 36.79308 | -79.36225 | 25718 ft | 409 kts | 148° |
| 2026-05-07 00:37 | 36.77149 | -79.33911 | 25341 ft | 410 kts | 147° |
| 2026-05-07 00:38 | 36.74993 | -79.31577 | 24938 ft | 410 kts | 147° |
| 2026-05-07 00:38 | 36.72843 | -79.29240 | 24576 ft | 411 kts | 147° |
| 2026-05-07 00:38 | 36.70687 | -79.26900 | 24222 ft | 411 kts | 147° |
| 2026-05-07 00:38 | 36.68530 | -79.24562 | 23869 ft | 412 kts | 147° |
| 2026-05-07 00:39 | 36.66371 | -79.22222 | 23508 ft | 412 kts | 146° |
| 2026-05-07 00:39 | 36.64207 | -79.19876 | 23101 ft | 412 kts | 147° |
| 2026-05-07 00:39 | 36.62043 | -79.17538 | 22679 ft | 412 kts | 146° |
| 2026-05-07 00:39 | 36.59881 | -79.15199 | 22281 ft | 412 kts | 146° |
| 2026-05-07 00:40 | 36.57717 | -79.12860 | 21878 ft | 412 kts | 146° |
| 2026-05-07 00:40 | 36.55566 | -79.10533 | 21486 ft | 407 kts | 146° |
| 2026-05-07 00:40 | 36.53444 | -79.08247 | 21093 ft | 402 kts | 146° |
| 2026-05-07 00:40 | 36.51339 | -79.05980 | 20689 ft | 398 kts | 146° |
| 2026-05-07 00:41 | 36.49255 | -79.03735 | 20162 ft | 398 kts | 146° |
| 2026-05-07 00:41 | 36.47151 | -79.01481 | 19438 ft | 399 kts | 145° |
| 2026-05-07 00:41 | 36.45065 | -78.99229 | 18679 ft | 396 kts | 145° |
| 2026-05-07 00:41 | 36.42985 | -78.96998 | 17856 ft | 395 kts | 145° |
| 2026-05-07 00:42 | 36.40909 | -78.94773 | 16971 ft | 393 kts | 145° |
| 2026-05-07 00:42 | 36.38864 | -78.92530 | 16109 ft | 392 kts | 141° |
| 2026-05-07 00:42 | 36.36960 | -78.90119 | 15272 ft | 390 kts | 137° |
| 2026-05-07 00:42 | 36.35106 | -78.87677 | 14440 ft | 385 kts | 141° |
| 2026-05-07 00:43 | 36.32905 | -78.86027 | 13947 ft | 356 kts | 168° |
| 2026-05-07 00:43 | 36.30575 | -78.85746 | 13607 ft | 323 kts | 195° |
| 2026-05-07 00:43 | 36.28620 | -78.86750 | 13248 ft | 293 kts | 224° |
| 2026-05-07 00:43 | 36.27319 | -78.88573 | 12898 ft | 277 kts | 237° |
| 2026-05-07 00:44 | 36.26215 | -78.90497 | 12388 ft | 272 kts | 239° |
| 2026-05-07 00:44 | 36.25169 | -78.92445 | 11856 ft | 270 kts | 240° |
| 2026-05-07 00:44 | 36.24161 | -78.94394 | 11333 ft | 268 kts | 239° |
| 2026-05-07 00:44 | 36.22819 | -78.95982 | 10732 ft | 276 kts | 211° |
| 2026-05-07 00:45 | 36.20946 | -78.96595 | 10388 ft | 273 kts | 200° |
| 2026-05-07 00:45 | 36.19808 | -78.97114 | 10327 ft | 254 kts | 213° |
| 2026-05-07 00:45 | 36.18236 | -78.97968 | 10191 ft | 248 kts | 197° |
| 2026-05-07 00:45 | 36.16514 | -78.97685 | 10004 ft | 260 kts | 160° |
| 2026-05-07 00:46 | 36.14993 | -78.96456 | 9748 ft | 264 kts | 146° |
| 2026-05-07 00:46 | 36.13920 | -78.94574 | 9366 ft | 277 kts | 115° |
| 2026-05-07 00:46 | 36.13283 | -78.92327 | 9032 ft | 276 kts | 110° |
| 2026-05-07 00:46 | 36.13133 | -78.89959 | 8732 ft | 279 kts | 79° |
| 2026-05-07 00:47 | 36.13683 | -78.87669 | 8490 ft | 278 kts | 66° |
| 2026-05-07 00:47 | 36.14416 | -78.85475 | 8281 ft | 276 kts | 65° |
| 2026-05-07 00:47 | 36.15117 | -78.83269 | 8050 ft | 275 kts | 68° |
| 2026-05-07 00:47 | 36.15707 | -78.81014 | 7808 ft | 275 kts | 72° |
| 2026-05-07 00:48 | 36.16233 | -78.78745 | 7571 ft | 274 kts | 73° |
| 2026-05-07 00:48 | 36.16751 | -78.76487 | 7357 ft | 272 kts | 72° |
| 2026-05-07 00:48 | 36.17210 | -78.74226 | 7112 ft | 270 kts | 86° |
| 2026-05-07 00:48 | 36.16885 | -78.71985 | 6811 ft | 264 kts | 122° |
| 2026-05-07 00:49 | 36.15737 | -78.70326 | 6561 ft | 251 kts | 146° |
| 2026-05-07 00:49 | 36.14388 | -78.68965 | 6297 ft | 249 kts | 148° |
| 2026-05-07 00:49 | 36.13019 | -78.67666 | 6025 ft | 247 kts | 149° |
| 2026-05-07 00:49 | 36.11670 | -78.66394 | 5811 ft | 237 kts | 150° |
| 2026-05-07 00:50 | 36.10333 | -78.65279 | 5366 ft | 229 kts | 162° |
| 2026-05-07 00:50 | 36.08843 | -78.64637 | 4864 ft | 226 kts | 169° |
| 2026-05-07 00:50 | 36.07369 | -78.64037 | 4439 ft | 222 kts | 170° |
| 2026-05-07 00:50 | 36.05899 | -78.63497 | 3994 ft | 216 kts | 177° |
| 2026-05-07 00:51 | 36.04442 | -78.63533 | 3519 ft | 208 kts | 190° |
| 2026-05-07 00:51 | 36.03030 | -78.63659 | 3239 ft | 198 kts | 190° |
| 2026-05-07 00:51 | 36.01658 | -78.63788 | 3100 ft | 204 kts | 191° |
| 2026-05-07 00:51 | 36.00214 | -78.63972 | 3043 ft | 210 kts | 197° |
| 2026-05-07 00:52 | 35.98996 | -78.64812 | 3025 ft | 193 kts | 229° |
| 2026-05-07 00:52 | 35.98151 | -78.65978 | 2870 ft | 175 kts | 231° |
| 2026-05-07 00:52 | 35.97448 | -78.67045 | 2683 ft | 146 kts | 233° |
| 2026-05-07 00:52 | 35.96895 | -78.67917 | 2478 ft | 115 kts | 234° |
| 2026-05-07 00:53 | 35.96456 | -78.68626 | 2138 ft | 102 kts | 234° |
| 2026-05-07 00:53 | 35.95935 | -78.69457 | 2000 ft | 128 kts | 232° |
| 2026-05-07 00:53 | 35.95402 | -78.70281 | 2025 ft | 121 kts | 231° |
| 2026-05-07 00:53 | 35.94841 | -78.71051 | 1913 ft | 122 kts | 228° |
| 2026-05-07 00:54 | 35.94259 | -78.71804 | 1724 ft | 123 kts | 228° |
| 2026-05-07 00:54 | 35.93652 | -78.72563 | 1568 ft | 123 kts | 226° |
| 2026-05-07 00:54 | 35.93060 | -78.73297 | 1379 ft | 121 kts | 225° |
| 2026-05-07 00:54 | 35.92473 | -78.74028 | 1225 ft | 121 kts | 225° |
| 2026-05-07 00:55 | 35.91862 | -78.74775 | 1095 ft | 126 kts | 225° |
| 2026-05-07 00:55 | 35.91215 | -78.75541 | 939 ft | 134 kts | 223° |
| 2026-05-07 00:55 | 35.90540 | -78.76352 | 785 ft | 135 kts | 227° |
| 2026-05-07 00:55 | 35.89886 | -78.77178 | 625 ft | 135 kts | 225° |
| 2026-05-07 00:56 | 35.89222 | -78.77998 | 440 ft | 135 kts | 223° |
| 2026-05-07 00:56 | 35.88648 | -78.78711 | 424 ft | 93 kts | 225° |
| 2026-05-07 00:56 | 35.88354 | -78.79059 | 424 ft | 22 kts | 204° |
| 2026-05-07 00:56 | 35.88270 | -78.79058 | 414 ft | 1 kts | 158° |
| 2026-05-07 00:57 | 35.88259 | -78.79053 | 419 ft | 2 kts | 165° |
| 2026-05-07 00:57 | 35.88239 | -78.79051 | 416 ft | 5 kts | 184° |
| 2026-05-07 00:57 | 35.88191 | -78.79086 | 414 ft | 10 kts | 223° |
| 2026-05-07 00:57 | 35.88145 | -78.79142 | 419 ft | 7 kts | 225° |
| 2026-05-07 00:58 | 35.88102 | -78.79154 | 414 ft | 5 kts | 158° |
| 2026-05-07 00:58 | 35.88085 | -78.79141 | 418 ft | 1 kts | 147° |
| 2026-05-07 00:58 | 35.88078 | -78.79136 | 419 ft | 1 kts | 153° |
| 2026-05-07 00:58 | 35.88072 | -78.79134 | 422 ft | 1 kts | 176° |